Minneapolis, Minnesota
Traffic Map
Current Weather Conditions
Minneapolis, Minnesota
Broken Clouds
Broken Clouds
47°
Feels Like: 47°
Wind Chill: 47° Ceiling: 25000
Heat Index: 47° Visibility: 10mi
Dew Point: 27° Wind: 3mph
Humidity: 46% Direction: 20° (NNE)
Pressure: 30.07in Gusts: 0mph
Raw Report DataKMSP 290153Z 02003KT 10SM FEW200 BKN250 08/M03 A3007 RMK AO2 SLP189 T00831028
Traffic Incident Summary
Active as of:
Severity:
Category:
InformationThere was an issue retrieving the traffic information for this location. Please try a different location or try again shortly.
Advertisements
Track Severe Weather on mobile